Madeira Beach, Florida
Current Conditions -  °F | °C
As of 8:53 PM on Tuesday 21 Oct 2014 (Local Time) from KSPG Reporting Station
Clear Clear  
Wind Chill: 77°   Ceiling: Unl
Heat Index: 79°   Visibility: 10mi
Dew Point: 65°   Wind: 5mph
Humidity: 66%   Direction: 360°N
Pressure: 29.93"   Gusts: NA
Location:  27.7976°N, 82.7976°W
Report Text: KSPG 220053Z AUTO 36004KT 10SM CLR 25/18 A2993 RMK AO2 SLP134 T02500183
Loading
Personal Weather Stations






























Interactive Weather Map
Tropical Storm Tracking
New forecast layout! Learn more

10-Day Weather Forecast

Advertisements
Track Severe Weather on mobile